createdAt,value
2022-11-29T00:00:08.358Z,3.2
2022-11-29T00:01:10.353Z,3.4
2022-11-29T00:02:11.567Z,3.4
2022-11-29T00:03:13.388Z,3.3
2022-11-29T00:04:15.400Z,3.3
2022-11-29T00:05:17.339Z,3.2
2022-11-29T00:06:19.408Z,3.2
2022-11-29T00:07:21.398Z,3.1
2022-11-29T00:08:23.300Z,3.2
2022-11-29T00:09:25.343Z,3.1
2022-11-29T00:10:27.340Z,2.9
2022-11-29T00:11:29.419Z,2.8
2022-11-29T00:12:31.340Z,2.9
2022-11-29T00:13:33.324Z,2.9
2022-11-29T00:14:34.339Z,3.1
2022-11-29T00:15:35.339Z,3.3
2022-11-29T00:16:36.403Z,3.2
2022-11-29T00:17:38.360Z,3.1
2022-11-29T00:18:40.323Z,3.1
2022-11-29T00:19:42.363Z,3.1
2022-11-29T00:20:44.339Z,3.1
2022-11-29T00:21:46.355Z,3.1
2022-11-29T00:22:47.320Z,3.2
2022-11-29T00:23:48.400Z,3.3
2022-11-29T00:24:49.318Z,3.3
2022-11-29T00:25:50.319Z,3.3
2022-11-29T00:26:51.348Z,3.3
2022-11-29T00:27:52.358Z,3.4
2022-11-29T00:28:53.339Z,3.4
2022-11-29T00:29:54.339Z,3.3
2022-11-29T00:30:55.344Z,3.3
2022-11-29T00:31:56.320Z,3.4
2022-11-29T00:32:57.323Z,3.4
2022-11-29T00:33:58.362Z,3.5
2022-11-29T00:35:02.970Z,3.6
2022-11-29T00:36:02.401Z,3.6
2022-11-29T00:37:04.386Z,3.5
2022-11-29T00:38:06.320Z,3.5
2022-11-29T00:39:08.387Z,3.3
2022-11-29T00:40:10.360Z,3.3
2022-11-29T00:41:11.399Z,3.3
2022-11-29T00:42:12.367Z,3.3
2022-11-29T00:43:13.311Z,3.3
2022-11-29T00:44:19.812Z,3.2
2022-11-29T00:45:17.383Z,3.2
2022-11-29T00:46:18.392Z,3.2
2022-11-29T00:47:20.320Z,3.2
2022-11-29T00:48:21.360Z,3.3
2022-11-29T00:49:22.339Z,3.2
2022-11-29T00:50:23.359Z,3.2
2022-11-29T00:51:24.339Z,3.2
2022-11-29T00:52:25.383Z,3.2
2022-11-29T00:53:26.339Z,3.3
2022-11-29T00:54:27.358Z,3.3
2022-11-29T00:55:28.358Z,3.4
2022-11-29T00:56:30.343Z,3.4
2022-11-29T00:57:32.339Z,3.3
2022-11-29T00:58:34.311Z,3.2
2022-11-29T00:59:36.379Z,3.2
2022-11-29T01:00:38.322Z,3.3
2022-11-29T01:01:40.424Z,3.4
2022-11-29T01:02:41.491Z,3.4
2022-11-29T01:03:43.331Z,3.4
2022-11-29T01:04:45.550Z,3.3
2022-11-29T01:05:47.340Z,3.2
2022-11-29T01:06:49.360Z,3.2
2022-11-29T01:07:50.435Z,3.2
2022-11-29T01:08:51.336Z,3.2
2022-11-29T01:09:52.339Z,3.3
2022-11-29T01:10:53.359Z,3.4
2022-11-29T01:11:54.341Z,3.4
2022-11-29T01:12:55.368Z,3.4
2022-11-29T01:13:56.419Z,3.4
2022-11-29T01:14:57.320Z,3.4
2022-11-29T01:15:58.353Z,3.3
2022-11-29T01:17:00.348Z,3.2
2022-11-29T01:18:02.320Z,3.2
2022-11-29T01:19:04.381Z,3.1
2022-11-29T01:20:06.340Z,3
2022-11-29T01:21:08.360Z,3.2
2022-11-29T01:22:09.383Z,3.3
2022-11-29T01:23:10.428Z,3.4
2022-11-29T01:24:11.356Z,3.5
2022-11-29T01:25:12.461Z,3.4
2022-11-29T01:26:14.359Z,3.4
2022-11-29T01:27:16.380Z,3.3
2022-11-29T01:28:17.359Z,3.3
2022-11-29T01:29:18.399Z,3.3
2022-11-29T01:30:19.400Z,3.4
2022-11-29T01:31:21.382Z,3.3
2022-11-29T01:32:22.323Z,3.3
2022-11-29T01:33:24.421Z,3.2
2022-11-29T01:34:26.362Z,3.1
2022-11-29T01:35:27.359Z,2.9
2022-11-29T01:36:28.382Z,3
2022-11-29T01:37:30.379Z,3
2022-11-29T01:38:32.362Z,3
2022-11-29T01:39:34.379Z,2.9
2022-11-29T01:40:36.379Z,3
2022-11-29T01:41:38.408Z,3.1
2022-11-29T01:42:40.367Z,3.2
2022-11-29T01:43:41.340Z,3.2
2022-11-29T01:44:42.771Z,3.3
2022-11-29T01:45:43.384Z,3.2
2022-11-29T01:46:45.399Z,3
2022-11-29T01:47:47.380Z,3
2022-11-29T01:48:49.348Z,3
2022-11-29T01:49:50.426Z,3.1
2022-11-29T01:50:51.319Z,3.1
2022-11-29T01:51:52.379Z,3.1
2022-11-29T01:52:53.367Z,3.2
2022-11-29T01:53:54.441Z,3.3
2022-11-29T01:54:55.403Z,3.4
2022-11-29T01:55:56.473Z,3.5
2022-11-29T01:56:58.380Z,3.6
2022-11-29T01:58:00.440Z,3.4
2022-11-29T01:59:02.423Z,3.4
2022-11-29T02:00:04.520Z,3.4
2022-11-29T02:01:06.457Z,3.3
2022-11-29T02:02:07.424Z,3.3
2022-11-29T02:03:08.361Z,3.1
2022-11-29T02:06:56.459Z,2.7
2022-11-29T02:07:57.547Z,2.6
2022-11-29T02:08:58.406Z,2.6
2022-11-29T02:10:00.840Z,2.6
2022-11-29T02:11:02.419Z,2.8
2022-11-29T02:12:04.419Z,2.9
2022-11-29T02:13:06.360Z,3
2022-11-29T02:14:08.359Z,3.1
2022-11-29T02:15:10.380Z,3.1
2022-11-29T02:16:12.504Z,3.2
2022-11-29T02:17:14.339Z,3.2
2022-11-29T02:18:16.399Z,3.2
2022-11-29T02:19:18.380Z,3.2
2022-11-29T02:20:19.443Z,3.4
2022-11-29T02:21:20.441Z,3.4
2022-11-29T02:22:21.360Z,3.3
2022-11-29T02:23:22.380Z,3.4
2022-11-29T02:24:23.387Z,3.5
2022-11-29T02:25:24.399Z,3.6
2022-11-29T02:26:25.419Z,3.6
2022-11-29T02:27:26.427Z,3.5
2022-11-29T02:28:27.361Z,3.4
2022-11-29T02:29:28.361Z,3.3
2022-11-29T02:30:29.426Z,3.1
2022-11-29T02:31:31.420Z,3.2
2022-11-29T02:32:33.400Z,3.2
2022-11-29T02:33:35.479Z,3.2
2022-11-29T02:34:37.380Z,3.2
2022-11-29T02:35:38.400Z,3.1
2022-11-29T02:36:40.435Z,3.1
2022-11-29T02:37:41.401Z,3.2
2022-11-29T02:38:42.501Z,3.1
2022-11-29T02:39:44.448Z,3.1
2022-11-29T02:40:46.418Z,3.2
2022-11-29T02:41:48.380Z,3.3
2022-11-29T02:42:55.963Z,3.3
2022-11-29T02:43:52.440Z,3.1
2022-11-29T02:44:54.439Z,2.8
2022-11-29T02:45:55.397Z,2.6
2022-11-29T02:46:56.419Z,2.6
2022-11-29T02:47:58.563Z,2.5
2022-11-29T02:49:00.499Z,2.4
2022-11-29T02:50:02.519Z,2.3
2022-11-29T02:51:04.460Z,2.2
2022-11-29T02:52:06.381Z,2.3
2022-11-29T02:53:08.399Z,2.6
2022-11-29T02:54:09.440Z,2.8
2022-11-29T02:55:10.431Z,2.9
2022-11-29T02:56:11.447Z,2.9
2022-11-29T02:57:12.419Z,2.9
2022-11-29T02:58:13.421Z,3
2022-11-29T02:59:14.419Z,3.1
2022-11-29T03:00:16.538Z,3.2
2022-11-29T03:01:18.641Z,3.3
2022-11-29T03:02:20.435Z,3.4
2022-11-29T03:03:21.379Z,3.4
2022-11-29T03:04:22.462Z,3.4
2022-11-29T03:05:23.439Z,3.6
2022-11-29T03:06:24.461Z,3.7
2022-11-29T03:07:25.416Z,3.6
2022-11-29T03:08:26.447Z,3.7
2022-11-29T03:09:27.459Z,3.7
2022-11-29T03:10:28.442Z,3.6
2022-11-29T03:11:29.465Z,3.4
2022-11-29T03:12:31.419Z,3.4
2022-11-29T03:13:33.399Z,3.3
2022-11-29T03:14:35.450Z,3.2
2022-11-29T03:15:37.467Z,3.2
2022-11-29T03:16:42.967Z,3.3
2022-11-29T03:17:41.419Z,3.2
2022-11-29T03:18:42.443Z,3.1
2022-11-29T03:19:43.461Z,3.1
2022-11-29T03:20:45.408Z,3
2022-11-29T03:21:47.419Z,3.1
2022-11-29T03:22:49.532Z,3.2
2022-11-29T03:23:51.399Z,3.3
2022-11-29T03:24:53.421Z,3.2
2022-11-29T03:25:54.468Z,3.1
2022-11-29T03:26:55.440Z,2.9
2022-11-29T03:27:56.440Z,2.8
2022-11-29T03:28:57.439Z,2.9
2022-11-29T03:29:58.440Z,3
2022-11-29T03:30:59.472Z,2.9
2022-11-29T03:32:01.434Z,2.9
2022-11-29T03:33:03.463Z,2.9
2022-11-29T03:34:05.860Z,3
2022-11-29T03:35:07.407Z,3
2022-11-29T03:36:09.495Z,3.1
2022-11-29T03:37:11.420Z,3.1
2022-11-29T03:38:12.487Z,3.1
2022-11-29T03:39:13.447Z,2.9
2022-11-29T03:40:14.431Z,3
2022-11-29T03:41:16.544Z,3.1
2022-11-29T03:42:17.461Z,3.2
2022-11-29T03:43:18.445Z,3.2
2022-11-29T03:44:19.459Z,3.1
2022-11-29T03:45:20.420Z,3
2022-11-29T03:46:21.552Z,3
2022-11-29T03:47:22.468Z,3
2022-11-29T03:48:23.479Z,2.9
2022-11-29T03:49:24.480Z,2.9
2022-11-29T03:50:25.461Z,2.9
2022-11-29T03:51:26.460Z,2.9
2022-11-29T03:52:27.479Z,3
2022-11-29T03:53:29.399Z,2.9
2022-11-29T03:54:31.400Z,2.9
2022-11-29T03:55:33.439Z,3
2022-11-29T03:56:35.469Z,2.9
2022-11-29T03:57:37.418Z,2.8
2022-11-29T03:58:38.439Z,2.9
2022-11-29T03:59:40.399Z,3
2022-11-29T04:00:42.439Z,3
2022-11-29T04:01:43.474Z,3
2022-11-29T04:02:45.489Z,3
2022-11-29T04:03:47.440Z,2.9
2022-11-29T04:04:49.402Z,2.9
2022-11-29T04:05:51.439Z,3
2022-11-29T04:06:53.481Z,3
2022-11-29T04:07:55.547Z,3.1
2022-11-29T04:08:57.480Z,3
2022-11-29T04:09:59.410Z,2.9
2022-11-29T04:11:01.439Z,2.8
2022-11-29T04:12:03.524Z,2.9
2022-11-29T04:13:05.881Z,2.8
2022-11-29T04:14:07.419Z,3
2022-11-29T04:15:11.569Z,3.1
2022-11-29T04:16:10.479Z,3.2
2022-11-29T04:17:12.500Z,3.4
2022-11-29T04:18:14.430Z,3.3
2022-11-29T04:19:16.498Z,3.3
2022-11-29T04:20:18.454Z,3.3
2022-11-29T04:21:19.379Z,3.4
2022-11-29T04:22:20.440Z,3.5
2022-11-29T04:23:21.439Z,3.5
2022-11-29T04:24:22.917Z,3.5
2022-11-29T04:25:24.461Z,3.5
2022-11-29T04:26:28.690Z,3.4
2022-11-29T04:27:27.446Z,3.4
2022-11-29T04:28:28.420Z,3.5
2022-11-29T04:29:29.441Z,3.6
2022-11-29T04:30:31.485Z,3.6
2022-11-29T04:31:33.506Z,3.5
2022-11-29T04:32:35.539Z,3.4
2022-11-29T04:33:37.446Z,3.3
2022-11-29T04:34:39.488Z,3.3
2022-11-29T04:35:40.460Z,3.3
2022-11-29T04:36:41.459Z,3.3
2022-11-29T04:37:42.439Z,3.4
2022-11-29T04:38:43.500Z,3.3
2022-11-29T04:39:44.438Z,3.4
2022-11-29T04:40:46.490Z,3.4
2022-11-29T04:41:48.539Z,3.4
2022-11-29T04:42:50.489Z,3.3
2022-11-29T04:43:51.459Z,3.3
2022-11-29T04:44:52.561Z,3.2
2022-11-29T04:45:54.501Z,3.2
2022-11-29T04:46:56.459Z,3.2
2022-11-29T04:47:57.482Z,3.3
2022-11-29T04:48:58.441Z,3.4
2022-11-29T04:49:59.525Z,3.5
2022-11-29T04:51:01.539Z,3.6
2022-11-29T04:52:03.478Z,3.5
2022-11-29T04:53:05.898Z,3.3
2022-11-29T04:54:07.480Z,3.4
2022-11-29T04:55:09.480Z,3.4
2022-11-29T04:56:10.479Z,3.4
2022-11-29T04:57:11.422Z,3.3
2022-11-29T04:58:12.467Z,3.2
2022-11-29T04:59:13.463Z,3.4
2022-11-29T05:00:14.440Z,3.5
2022-11-29T05:01:16.543Z,3.6
2022-11-29T05:02:18.519Z,3.6
2022-11-29T05:03:20.440Z,3.7
2022-11-29T05:04:22.459Z,3.8
2022-11-29T05:05:23.441Z,3.7
2022-11-29T05:06:24.440Z,3.6
2022-11-29T05:07:25.494Z,3.6
2022-11-29T05:08:26.442Z,3.6
2022-11-29T05:09:27.439Z,3.4
2022-11-29T05:10:28.461Z,3.5
2022-11-29T05:11:29.460Z,3.6
2022-11-29T05:12:31.519Z,3.5
2022-11-29T05:13:33.570Z,3.5
2022-11-29T05:14:35.487Z,3.5
2022-11-29T05:15:37.493Z,3.4
2022-11-29T05:16:39.460Z,3.4
2022-11-29T05:17:41.479Z,3.5
2022-11-29T05:18:42.479Z,3.4
2022-11-29T05:19:43.502Z,3.4
2022-11-29T05:20:44.459Z,3.4
2022-11-29T05:21:45.438Z,3.4
2022-11-29T05:22:47.459Z,3.5
2022-11-29T05:23:48.439Z,3.4
2022-11-29T05:24:49.478Z,3.2
2022-11-29T05:25:51.438Z,3.1
2022-11-29T05:26:52.480Z,3
2022-11-29T05:27:53.479Z,3.1
2022-11-29T05:28:54.449Z,3.2
2022-11-29T05:29:55.526Z,3.3
2022-11-29T05:30:57.576Z,3.4
2022-11-29T05:31:58.461Z,3.6
2022-11-29T05:32:59.479Z,3.7
2022-11-29T05:34:01.579Z,3.6
2022-11-29T05:35:03.508Z,3.6
2022-11-29T05:36:05.998Z,3.5
2022-11-29T05:37:07.460Z,3.4
2022-11-29T05:38:09.459Z,3.4
2022-11-29T05:39:11.539Z,3.4
2022-11-29T05:40:13.503Z,3.4
2022-11-29T05:41:14.580Z,3.4
2022-11-29T05:42:16.541Z,3.4
2022-11-29T05:43:18.544Z,3.5
2022-11-29T05:44:20.541Z,3.6
2022-11-29T05:45:22.478Z,3.6
2022-11-29T05:46:24.593Z,3.5
2022-11-29T05:47:31.164Z,3.6
2022-11-29T05:48:27.480Z,3.5
2022-11-29T05:49:28.480Z,3.5
2022-11-29T05:50:29.489Z,3.6
2022-11-29T05:51:30.880Z,3.9
2022-11-29T05:52:32.506Z,4
2022-11-29T05:53:34.518Z,4.2
2022-11-29T05:54:36.498Z,4.1
2022-11-29T05:55:38.518Z,4
2022-11-29T05:56:41.389Z,3.8
2022-11-29T05:57:42.495Z,3.7
2022-11-29T05:58:45.159Z,3.7
2022-11-29T05:59:46.546Z,3.8
2022-11-29T06:00:47.480Z,3.9
2022-11-29T06:01:48.582Z,4
2022-11-29T06:02:49.493Z,4
2022-11-29T06:03:51.538Z,4
2022-11-29T06:04:53.491Z,3.9
2022-11-29T06:05:55.559Z,3.7
2022-11-29T06:06:57.559Z,3.8
2022-11-29T06:07:59.530Z,3.7
2022-11-29T06:09:01.560Z,3.8
2022-11-29T06:10:03.138Z,3.8
2022-11-29T06:11:04.559Z,3.7
2022-11-29T06:12:06.778Z,3.6
2022-11-29T06:13:08.531Z,3.8
2022-11-29T06:14:10.488Z,3.8
2022-11-29T06:15:12.548Z,3.8
2022-11-29T06:16:14.637Z,3.8
2022-11-29T06:17:16.532Z,3.8
2022-11-29T06:18:18.502Z,3.7
2022-11-29T06:19:20.559Z,3.5
2022-11-29T06:20:21.579Z,3.5
2022-11-29T06:21:23.479Z,3.6
2022-11-29T06:22:25.543Z,3.6
2022-11-29T06:23:28.111Z,3.7
2022-11-29T06:24:30.507Z,3.8
2022-11-29T06:25:31.507Z,3.7
2022-11-29T06:26:33.505Z,3.6
2022-11-29T06:27:35.539Z,3.6
2022-11-29T06:28:37.680Z,3.6
2022-11-29T06:29:39.542Z,3.5
2022-11-29T06:30:41.625Z,3.6
2022-11-29T06:31:43.586Z,3.7
2022-11-29T06:32:44.519Z,3.8
2022-11-29T06:33:45.639Z,4
2022-11-29T06:34:48.462Z,4.1
2022-11-29T06:35:50.121Z,4.1
2022-11-29T06:36:51.499Z,4
2022-11-29T06:37:52.519Z,3.8
2022-11-29T06:38:53.582Z,3.6
2022-11-29T06:39:55.503Z,3.6
2022-11-29T06:41:01.737Z,3.7
2022-11-29T06:41:59.379Z,3.8
2022-11-29T06:43:00.580Z,3.9
2022-11-29T06:44:02.560Z,3.9
2022-11-29T06:45:04.702Z,4
2022-11-29T06:46:06.646Z,4
2022-11-29T06:47:08.540Z,3.9
2022-11-29T06:48:10.559Z,3.8
2022-11-29T06:49:11.465Z,3.8
2022-11-29T06:50:12.503Z,3.6
2022-11-29T06:51:14.518Z,3.7
2022-11-29T06:52:16.619Z,3.7
2022-11-29T06:53:18.489Z,3.6
2022-11-29T06:54:20.520Z,3.5
2022-11-29T06:55:22.559Z,3.6
2022-11-29T06:56:24.579Z,3.5
2022-11-29T06:57:26.521Z,3.5
2022-11-29T06:58:30.300Z,3.6
2022-11-29T06:59:28.568Z,3.6
2022-11-29T07:00:30.805Z,3.7
2022-11-29T07:01:32.706Z,3.8
2022-11-29T07:02:34.581Z,3.9
2022-11-29T07:03:36.584Z,4
2022-11-29T07:04:41.259Z,4.1
2022-11-29T07:05:42.581Z,4.1
2022-11-29T07:06:43.542Z,4.2
2022-11-29T07:07:44.593Z,4.3
2022-11-29T07:08:45.519Z,4.3
2022-11-29T07:09:46.538Z,4.3
2022-11-29T07:10:47.579Z,4.3
2022-11-29T07:11:49.567Z,4.4
2022-11-29T07:12:50.558Z,4.5
2022-11-29T07:13:51.580Z,4.5
2022-11-29T07:14:52.599Z,4.5
2022-11-29T07:15:54.775Z,4.5
2022-11-29T07:16:57.552Z,4.3
2022-11-29T07:17:57.559Z,4.1
2022-11-29T07:18:58.602Z,4
2022-11-29T07:19:59.901Z,4
2022-11-29T07:21:01.826Z,4.2
2022-11-29T07:22:03.620Z,4.3
2022-11-29T07:23:05.600Z,4.3
2022-11-29T07:24:07.796Z,4.3
2022-11-29T07:25:09.570Z,4.4
2022-11-29T07:26:11.531Z,4.5
2022-11-29T07:27:12.600Z,4.5
2022-11-29T07:28:14.599Z,4.6
2022-11-29T07:29:16.539Z,4.5
2022-11-29T07:30:19.161Z,4.5
2022-11-29T07:31:20.590Z,4.5
2022-11-29T07:32:22.569Z,4.5
2022-11-29T07:33:23.719Z,4.5
2022-11-29T07:34:25.580Z,4.4
2022-11-29T07:35:26.520Z,4.4
2022-11-29T07:36:27.531Z,4.2
2022-11-29T07:37:28.620Z,4.3
2022-11-29T07:38:30.559Z,4.3
2022-11-29T07:39:31.760Z,4.3
2022-11-29T07:40:37.503Z,4.4
2022-11-29T07:41:35.518Z,4.3
2022-11-29T07:42:37.669Z,4.2
2022-11-29T07:43:39.559Z,4.2
2022-11-29T07:44:41.559Z,4.1
2022-11-29T07:45:42.539Z,4.1
2022-11-29T07:46:43.596Z,4
2022-11-29T07:47:44.854Z,3.9
2022-11-29T07:48:47.623Z,3.9
2022-11-29T07:49:50.219Z,4
2022-11-29T07:50:51.519Z,4.1
2022-11-29T07:51:52.581Z,4.2
2022-11-29T07:52:54.600Z,4.3
2022-11-29T07:53:56.659Z,4.4
2022-11-29T07:54:58.579Z,4.4
2022-11-29T07:55:59.940Z,4.4
2022-11-29T07:57:01.682Z,4.4
2022-11-29T07:58:03.598Z,4.5
2022-11-29T07:59:05.656Z,4.6
2022-11-29T08:00:07.634Z,4.5
2022-11-29T08:01:09.666Z,4.6
2022-11-29T08:02:12.003Z,4.7
2022-11-29T08:03:12.789Z,4.8
2022-11-29T08:04:14.775Z,4.8
2022-11-29T08:05:16.801Z,4.8
2022-11-29T08:06:18.903Z,4.8
2022-11-29T08:07:21.223Z,4.8
2022-11-29T08:08:22.560Z,5
2022-11-29T08:09:23.637Z,5.1
2022-11-29T08:10:24.605Z,5.2
2022-11-29T08:11:25.583Z,5.2
2022-11-29T08:12:26.568Z,5.2
2022-11-29T08:13:27.594Z,5.2
2022-11-29T08:14:28.559Z,5.3
2022-11-29T08:15:30.590Z,5.4
2022-11-29T08:16:32.618Z,5.4
2022-11-29T08:17:33.499Z,5.3
2022-11-29T08:18:35.593Z,5.3
2022-11-29T08:19:37.641Z,5.2
2022-11-29T08:20:40.161Z,5.2
2022-11-29T08:21:41.760Z,5.1
2022-11-29T08:22:43.599Z,5
2022-11-29T08:23:45.882Z,5.1
2022-11-29T08:24:47.904Z,5
2022-11-29T08:25:49.601Z,5
2022-11-29T08:26:51.588Z,4.8
2022-11-29T08:27:52.619Z,4.7
2022-11-29T08:28:53.560Z,4.7
2022-11-29T08:29:54.909Z,4.7
2022-11-29T08:30:56.681Z,4.7
2022-11-29T08:31:58.694Z,4.8
2022-11-29T08:33:00.939Z,4.6
2022-11-29T08:34:02.956Z,4.5
2022-11-29T08:35:04.640Z,4.7
2022-11-29T08:36:07.224Z,4.6
2022-11-29T08:37:08.538Z,4.5
2022-11-29T08:38:09.840Z,4.5
2022-11-29T08:39:12.459Z,4.5
2022-11-29T08:40:13.599Z,4.3
2022-11-29T08:41:14.599Z,4.1
2022-11-29T08:42:16.559Z,4.1
2022-11-29T08:43:17.599Z,4.1
2022-11-29T08:45:26.689Z,4.1
2022-11-29T08:46:28.680Z,4
2022-11-29T08:47:30.582Z,4.1
2022-11-29T08:48:32.533Z,4.2
2022-11-29T08:49:33.630Z,4.4
2022-11-29T08:50:35.558Z,4.6
2022-11-29T08:51:37.632Z,4.7
2022-11-29T08:52:39.561Z,4.9
2022-11-29T08:53:41.722Z,4.9
2022-11-29T08:54:43.905Z,4.7
2022-11-29T08:55:44.616Z,4.6
2022-11-29T08:57:46.544Z,4.7
2022-11-29T08:58:47.611Z,4.8
2022-11-29T08:59:48.621Z,4.9
2022-11-29T09:00:49.626Z,4.9
2022-11-29T09:01:52.145Z,4.9
2022-11-29T09:02:54.170Z,4.9
2022-11-29T09:03:55.640Z,5
2022-11-29T09:04:57.628Z,5
2022-11-29T09:05:59.082Z,4.8
2022-11-29T09:07:00.624Z,4.6
2022-11-29T09:08:02.625Z,4.6
2022-11-29T09:09:04.680Z,4.5
2022-11-29T09:10:06.627Z,4.5
2022-11-29T09:11:08.902Z,4.6
2022-11-29T09:12:10.580Z,4.5
2022-11-29T09:13:12.561Z,4.4
2022-11-29T09:14:13.614Z,4.5
2022-11-29T09:15:14.630Z,4.5
2022-11-29T09:16:15.619Z,4.6
2022-11-29T09:17:17.616Z,4.6
2022-11-29T09:18:19.600Z,4.8
2022-11-29T09:19:20.579Z,5
2022-11-29T09:20:21.681Z,5.1
2022-11-29T09:21:22.959Z,5.1
2022-11-29T09:22:24.563Z,5.2
2022-11-29T09:23:26.640Z,5.1
2022-11-29T09:24:27.625Z,5.2
2022-11-29T09:25:28.617Z,5.3
2022-11-29T09:26:30.064Z,5.3
2022-11-29T09:27:32.236Z,5.2
2022-11-29T09:28:33.578Z,5.3
2022-11-29T09:29:34.613Z,5.3
2022-11-29T09:30:35.583Z,5.3
2022-11-29T09:31:36.743Z,5.4
2022-11-29T09:32:38.577Z,5.4
2022-11-29T09:33:40.584Z,5.4
2022-11-29T09:34:42.754Z,5.2
2022-11-29T09:35:44.682Z,5.2
2022-11-29T09:36:45.599Z,5.2
2022-11-29T09:37:46.581Z,5.3
2022-11-29T09:38:49.369Z,5.4
2022-11-29T09:39:50.639Z,5.4
2022-11-29T09:40:53.231Z,5.5
2022-11-29T09:41:54.644Z,5.6
2022-11-29T09:42:56.580Z,5.6
2022-11-29T09:43:57.779Z,5.6
2022-11-29T09:44:59.700Z,5.7
2022-11-29T09:46:01.806Z,5.7
2022-11-29T09:47:03.599Z,5.6
2022-11-29T09:48:05.641Z,5.4
2022-11-29T09:49:07.961Z,5.3
2022-11-29T09:50:09.632Z,5.2
2022-11-29T09:51:10.721Z,5.3
2022-11-29T09:52:12.639Z,5.3
2022-11-29T09:53:13.640Z,5.4
2022-11-29T09:54:14.627Z,5.4
2022-11-29T09:55:15.660Z,5.3
2022-11-29T09:56:17.604Z,5.3
2022-11-29T09:57:19.700Z,5.2
2022-11-29T09:58:21.698Z,5.3
2022-11-29T09:59:23.619Z,5.3
2022-11-29T10:00:24.694Z,5.5
2022-11-29T10:01:26.786Z,5.6
2022-11-29T10:02:28.667Z,5.6
2022-11-29T10:03:29.659Z,5.7
2022-11-29T10:04:30.719Z,5.7
2022-11-29T10:05:32.639Z,5.7
2022-11-29T10:06:33.636Z,5.6
2022-11-29T10:07:34.703Z,5.6
2022-11-29T10:08:36.660Z,5.5
2022-11-29T10:09:38.620Z,5.4
2022-11-29T10:10:40.620Z,5.4
2022-11-29T10:11:42.604Z,5.5
2022-11-29T10:12:44.681Z,5.5
2022-11-29T10:13:46.961Z,5.5
2022-11-29T10:14:49.539Z,5.6
2022-11-29T10:15:51.699Z,5.6
2022-11-29T10:16:53.636Z,5.7
2022-11-29T10:17:54.619Z,5.8
2022-11-29T10:18:55.701Z,5.8
2022-11-29T10:19:57.619Z,5.9
2022-11-29T10:20:58.700Z,5.8
2022-11-29T10:21:59.709Z,5.5
2022-11-29T10:23:00.659Z,5.5
2022-11-29T10:24:03.140Z,5.5
2022-11-29T10:25:04.688Z,5.5
2022-11-29T10:26:06.660Z,5.6
2022-11-29T10:27:07.660Z,5.7
2022-11-29T10:28:08.673Z,5.9
2022-11-29T10:29:09.960Z,6
2022-11-29T10:30:11.639Z,6
2022-11-29T10:31:13.711Z,6
2022-11-29T10:32:14.660Z,6.1
2022-11-29T10:33:16.596Z,6.2
2022-11-29T10:34:18.664Z,6.3
2022-11-29T10:35:19.661Z,6.3
2022-11-29T10:36:20.719Z,6.3
2022-11-29T10:37:22.744Z,6.3
2022-11-29T10:38:32.333Z,6.3
2022-11-29T10:39:26.719Z,6.4
2022-11-29T10:40:28.679Z,6.3
2022-11-29T10:41:29.627Z,6.2
2022-11-29T10:42:30.639Z,6.2
2022-11-29T10:43:31.619Z,6.2
2022-11-29T10:44:33.730Z,6.1
2022-11-29T10:45:35.623Z,6.2
2022-11-29T10:46:37.700Z,6.1
2022-11-29T10:47:39.606Z,6.2
2022-11-29T10:48:40.679Z,6.2
2022-11-29T10:49:42.640Z,6.2
2022-11-29T10:50:43.619Z,6.3
2022-11-29T10:51:44.620Z,6.2
2022-11-29T10:52:45.807Z,6
2022-11-29T10:53:47.705Z,5.8
2022-11-29T10:54:49.661Z,5.7
2022-11-29T10:55:50.721Z,5.6
2022-11-29T10:56:51.619Z,5.6
2022-11-29T10:57:52.676Z,5.5
2022-11-29T10:58:53.999Z,5.4
2022-11-29T10:59:56.019Z,5.4
2022-11-29T11:00:57.779Z,5.5
2022-11-29T11:01:59.699Z,5.5
2022-11-29T11:03:00.641Z,5.5
2022-11-29T11:04:01.760Z,5.5
2022-11-29T11:05:03.719Z,5.5
2022-11-29T11:06:04.740Z,5.6
2022-11-29T11:07:06.705Z,5.7
2022-11-29T11:08:08.710Z,5.8
2022-11-29T11:09:09.628Z,5.9
2022-11-29T11:10:11.699Z,5.9
2022-11-29T11:11:13.640Z,5.9
2022-11-29T11:12:14.699Z,5.8
2022-11-29T11:13:16.700Z,5.7
2022-11-29T11:14:19.392Z,5.7
2022-11-29T11:15:21.599Z,5.8
2022-11-29T11:16:22.974Z,5.8
2022-11-29T11:17:24.701Z,5.8
2022-11-29T11:18:27.326Z,5.8
2022-11-29T11:19:28.747Z,5.9
2022-11-29T11:20:31.299Z,6
2022-11-29T11:21:33.259Z,6.1
2022-11-29T11:22:35.861Z,6.1
2022-11-29T11:23:42.488Z,6.1
2022-11-29T11:24:39.941Z,6.1
2022-11-29T11:25:41.646Z,6.2
2022-11-29T11:26:42.688Z,6
2022-11-29T11:27:43.739Z,6
2022-11-29T11:28:44.802Z,5.8
2022-11-29T11:29:48.071Z,5.9
2022-11-29T11:30:50.133Z,6
2022-11-29T11:31:51.681Z,6
2022-11-29T11:32:53.680Z,6
2022-11-29T11:33:54.740Z,6.2
2022-11-29T11:34:56.720Z,6.3
2022-11-29T11:35:58.641Z,6.4
2022-11-29T11:37:00.009Z,6.5
2022-11-29T11:38:01.702Z,6.5
2022-11-29T11:39:02.728Z,6.4
2022-11-29T11:40:04.700Z,6.3
2022-11-29T11:41:06.705Z,6.2
2022-11-29T11:42:08.701Z,6.3
2022-11-29T11:43:10.660Z,6.3
2022-11-29T11:44:15.214Z,6.4
2022-11-29T11:45:14.742Z,6.3
2022-11-29T11:46:18.054Z,6.1
2022-11-29T11:47:18.026Z,6
2022-11-29T11:48:19.699Z,6.1
2022-11-29T11:49:22.042Z,6.1
2022-11-29T11:50:23.680Z,6.1
2022-11-29T11:51:24.721Z,6.1
2022-11-29T11:52:26.756Z,6.1
2022-11-29T11:53:28.661Z,6.1
2022-11-29T11:54:29.788Z,6.1
2022-11-29T11:55:31.653Z,6.1
2022-11-29T11:56:33.675Z,6
2022-11-29T11:57:35.722Z,6
2022-11-29T11:58:37.720Z,5.8
2022-11-29T11:59:38.720Z,5.7
2022-11-29T12:01:03.810Z,5.6
2022-11-29T12:01:41.750Z,5.6
2022-11-29T12:02:43.772Z,5.7
2022-11-29T12:03:45.755Z,5.7
2022-11-29T12:04:47.842Z,5.9
2022-11-29T12:05:49.678Z,6
2022-11-29T12:06:52.091Z,6
2022-11-29T12:08:09.324Z,6.2
2022-11-29T12:08:55.667Z,6.2
2022-11-29T12:09:56.865Z,6.3
2022-11-29T12:11:01.541Z,6.2
2022-11-29T12:12:00.660Z,6.3
2022-11-29T12:13:01.706Z,6.3
2022-11-29T12:14:03.760Z,6.4
2022-11-29T12:15:04.742Z,6.4
2022-11-29T12:16:05.714Z,6.4
2022-11-29T12:17:06.800Z,6.5
2022-11-29T12:18:08.661Z,6.5
2022-11-29T12:19:09.686Z,6.6
2022-11-29T12:20:10.740Z,6.6
2022-11-29T12:21:11.720Z,6.5
2022-11-29T12:22:12.701Z,6.5
2022-11-29T12:23:14.204Z,6.5
2022-11-29T12:24:15.701Z,6.5
2022-11-29T12:25:18.109Z,6.3
2022-11-29T12:26:48.764Z,6.1
2022-11-29T12:27:21.720Z,5.9
2022-11-29T12:28:22.744Z,6
2022-11-29T12:29:23.699Z,6.1
2022-11-29T12:30:25.243Z,6.2
2022-11-29T12:31:26.845Z,6.4
2022-11-29T12:32:28.761Z,6.3
2022-11-29T12:33:30.701Z,6.1
2022-11-29T12:34:33.120Z,6
2022-11-29T12:35:35.120Z,6
2022-11-29T12:36:36.720Z,6
2022-11-29T12:37:38.804Z,6.1
2022-11-29T12:38:40.750Z,6.1
2022-11-29T12:39:42.720Z,6.3
2022-11-29T12:40:43.770Z,6.5
2022-11-29T12:41:49.576Z,6.6
2022-11-29T12:42:47.720Z,6.5
2022-11-29T12:43:49.721Z,6.5
2022-11-29T12:44:51.700Z,6.3
2022-11-29T12:45:53.740Z,6.3
2022-11-29T12:47:07.279Z,6.2
2022-11-29T12:47:56.721Z,6.1
2022-11-29T12:48:58.741Z,6.1
2022-11-29T12:50:00.809Z,6
2022-11-29T12:51:02.800Z,5.9
2022-11-29T12:52:04.744Z,5.7
2022-11-29T12:53:06.660Z,5.9
2022-11-29T12:54:08.682Z,6.1
2022-11-29T12:55:11.008Z,6.2
2022-11-29T12:56:12.769Z,6.3
2022-11-29T12:57:13.657Z,6.3
2022-11-29T12:58:14.687Z,6.4
2022-11-29T12:59:15.759Z,6.4
2022-11-29T13:00:17.142Z,6.4
2022-11-29T13:01:18.860Z,6.4
2022-11-29T13:02:20.819Z,6.4
2022-11-29T13:03:21.726Z,6.4
2022-11-29T13:04:22.880Z,6.4
2022-11-29T13:05:24.690Z,6.3
2022-11-29T13:06:26.120Z,6.2
2022-11-29T13:07:27.781Z,6.2
2022-11-29T13:08:29.743Z,6
2022-11-29T13:09:30.781Z,5.9
2022-11-29T13:10:32.764Z,5.8
2022-11-29T13:11:34.786Z,5.7
2022-11-29T13:12:36.761Z,5.7
2022-11-29T13:13:39.120Z,5.8
2022-11-29T13:14:42.964Z,5.8
2022-11-29T13:15:42.759Z,5.8
2022-11-29T13:16:44.752Z,6
2022-11-29T13:17:45.842Z,6.2
2022-11-29T13:18:47.838Z,6.3
2022-11-29T13:19:49.740Z,6.3
2022-11-29T13:20:50.769Z,6.4
2022-11-29T13:21:52.700Z,6.5
2022-11-29T13:22:55.101Z,6.7
2022-11-29T13:24:12.177Z,6.5
2022-11-29T13:24:58.760Z,6.6
2022-11-29T13:25:59.751Z,6.6
2022-11-29T13:27:00.765Z,6.7
2022-11-29T13:28:02.481Z,6.7
2022-11-29T13:29:03.764Z,6.6
2022-11-29T13:30:04.799Z,6.7
2022-11-29T13:31:06.836Z,6.8
2022-11-29T13:32:13.017Z,6.8
2022-11-29T13:33:10.941Z,6.8
2022-11-29T13:34:12.840Z,6.8
2022-11-29T13:35:14.750Z,6.8
2022-11-29T13:36:15.739Z,6.8
2022-11-29T13:37:17.721Z,6.8
2022-11-29T13:38:19.803Z,6.8
2022-11-29T13:39:21.727Z,6.9
2022-11-29T13:40:22.800Z,6.9
2022-11-29T13:41:25.113Z,6.9
2022-11-29T13:42:26.783Z,7
2022-11-29T13:43:30.559Z,6.9
2022-11-29T13:44:30.720Z,6.9
2022-11-29T13:45:31.739Z,6.9
2022-11-29T13:46:33.796Z,6.8
2022-11-29T13:47:34.701Z,6.8
2022-11-29T13:48:36.748Z,6.9
2022-11-29T13:49:38.853Z,6.8
2022-11-29T13:50:40.740Z,6.8
2022-11-29T13:51:42.745Z,6.9
2022-11-29T13:52:44.098Z,6.9
2022-11-29T13:53:49.023Z,6.9
2022-11-29T13:54:48.005Z,7
2022-11-29T13:55:49.681Z,6.9
2022-11-29T13:56:51.759Z,6.8
2022-11-29T13:58:15.282Z,6.6
2022-11-29T13:58:55.683Z,6.6
2022-11-29T13:59:56.862Z,6.6
2022-11-29T14:00:58.749Z,6.7
2022-11-29T14:02:00.839Z,6.8
2022-11-29T14:03:02.833Z,6.8
2022-11-29T14:04:04.764Z,6.8
2022-11-29T14:05:06.801Z,6.6
2022-11-29T14:06:08.851Z,6.6
2022-11-29T14:07:10.759Z,6.6
2022-11-29T14:08:17.745Z,6.6
2022-11-29T14:09:19.539Z,6.5
2022-11-29T14:10:17.110Z,6.4
2022-11-29T14:11:18.859Z,6.3
2022-11-29T14:12:20.800Z,6.3
2022-11-29T14:13:21.763Z,6.2
2022-11-29T14:14:22.740Z,6.2
2022-11-29T14:15:24.787Z,6.2
2022-11-29T14:16:26.772Z,6
2022-11-29T14:17:28.783Z,6
2022-11-29T14:18:30.720Z,6